Gridley, CA (95948)

7:34 PM PDT on August 27, 2015 (GMT -0700)
W. Gridley | | Change Station
CLOSE
Current Station
Personal Weather Station
Location: Gridley, CA
Elevation: 89 ft
Nearby Weather Stations

Elev 89 ft 39.36 °N, 121.71 °W | Updated 5 minutes ago

Clear
Clear
91.0 °F
Feels Like 91 °F
N
0.0
Wind Variable Wind from SSE

Today
High -- | Low -- °F
--% Chance of Precip.
Yesterday
High -- | Low -- °F
Precip. -- in
6:30 AM 7:45 PM
Waxing Gibbous, 96% visible
Pressure 29.90 in
Visibility 10.0 miles
Clouds Clear
Heat Index 91 °F
Dew Point 62 °F
Humidity 38%
Rainfall 0.00 in
Snow Depth Not available.
UV 0 out of 12
Pollen 7.40 out of 12
Air Quality Not available.
Flu Activity Not available.
METAR KOVE 280153Z AUTO 17006KT 10SM CLR 36/08 A2990 RMK AO2 SLP124 T03610083
Pressure 29.90 in
Visibility 10.0 miles
Clouds Clear
Heat Index 91 °F
Dew Point 62 °F
Humidity 38%
Rainfall 0.00 in
Snow Depth Not available.
UV 0 out of 12
Pollen 7.40 out of 12
Air Quality Not available.
Flu Activity Not available.
METAR KOVE 280153Z AUTO 17006KT 10SM CLR 36/08 A2990 RMK AO2 SLP124 T03610083

10-Day Weather Forecast

×

Almanac

Astronomy

Aug. 27, 2015 Rise Set
Actual Time
Civil Twilight
Nautical Twilight
Astronomical Twilight
Moon
Length of Visible Light
Length of Day
Tomorrow will be .
, % of the Moon is Illuminated

Today's Extremes

State Highs State Lows

Community

WunderPhotos

Upload Photos

1,850,301 photos uploaded!

WunderBlogs® & News

Nearby

Air Quality

  Air Quality AQ Index Pollutant
Not available.

Snow Depth

Station Depth Elevation

Earthquake Activity

City Distance Mag. Time & Date
Minimum magnitude displayed is 2.5.

Coastal Water Temperatures

Place Temperature

Stations

Nearby Weather Stations

Station Location Temp. Windchill Dew Point Humidity Wind Precip. Elev Updated Type